Time;durP1;ratioP1;P1;durP2;ratioP2;P2;SDS_P1;SDS_P2;PMS_P1;PMS_P2;Temp;Humidity;BMP_temperature;BMP_pressure;BME280_temperature;BME280_humidity;BME280_pressure;Samples;Min_cycle;Max_cycle;Signal;HPM_P1;HPM_P2
2022/06/05 00:00:20;;;;;;;1.25;0.90;;;23.70;58.70;;;;;;6276875;28;20044;-54
2022/06/05 00:03:30;;;;;;;0.70;0.70;;;23.70;58.90;;;;;;6284448;28;20072;-49
2022/06/05 00:06:37;;;;;;;0.90;0.90;;;23.70;59.60;;;;;;6282243;28;20040;-50
2022/06/05 00:09:52;;;;;;;1.00;0.80;;;23.60;59.00;;;;;;6282178;28;20858;-52
2022/06/05 00:13:09;;;;;;;1.10;0.98;;;23.70;59.10;;;;;;6277538;28;20051;-49
2022/06/05 00:16:12;;;;;;;0.77;0.77;;;23.70;59.20;;;;;;6281576;28;20044;-48
2022/06/05 00:19:13;;;;;;;0.55;0.55;;;23.70;59.30;;;;;;6278743;28;20082;-48
2022/06/05 00:22:15;;;;;;;1.02;0.63;;;23.70;59.30;;;;;;6278180;28;20063;-53
2022/06/05 00:25:17;;;;;;;0.60;0.60;;;23.60;59.40;;;;;;6275126;28;20059;-51
2022/06/05 00:28:27;;;;;;;0.70;0.60;;;23.70;59.50;;;;;;6278192;28;20040;-53
2022/06/05 00:31:35;;;;;;;0.57;0.57;;;23.60;59.50;;;;;;6278599;28;20966;-52
2022/06/05 00:34:37;;;;;;;0.60;0.60;;;23.60;59.60;;;;;;6280758;28;21673;-51
2022/06/05 00:37:48;;;;;;;0.63;0.63;;;23.50;59.50;;;;;;6262133;28;20993;-50
2022/06/05 00:41:05;;;;;;;0.43;0.43;;;23.60;59.70;;;;;;6277440;28;21085;-51
2022/06/05 00:44:12;;;;;;;0.60;0.50;;;23.60;59.70;;;;;;6279561;28;20863;-52
2022/06/05 00:47:18;;;;;;;0.50;0.50;;;23.60;59.70;;;;;;6277881;28;20953;-48
2022/06/05 00:50:22;;;;;;;0.90;0.70;;;23.70;59.80;;;;;;6265518;28;20154;-49
2022/06/05 00:53:23;;;;;;;0.55;0.55;;;23.60;59.70;;;;;;6279297;28;20150;-49
2022/06/05 00:56:25;;;;;;;0.70;0.68;;;23.60;59.70;;;;;;6277219;28;20251;-53
2022/06/05 00:59:28;;;;;;;0.80;0.52;;;23.60;59.70;;;;;;6278554;28;20043;-50
2022/06/05 01:02:29;;;;;;;0.73;0.73;;;23.60;59.70;;;;;;6278392;28;20122;-48
2022/06/05 01:05:32;;;;;;;0.50;0.50;;;23.60;59.70;;;;;;6278674;28;20047;-53
2022/06/05 01:08:33;;;;;;;0.60;0.60;;;23.60;59.80;;;;;;6275837;28;20129;-51
2022/06/05 01:11:50;;;;;;;0.73;0.70;;;23.60;59.70;;;;;;6281435;28;20035;-52
2022/06/05 01:15:03;;;;;;;0.80;0.80;;;23.50;59.70;;;;;;6277841;28;20119;-58
2022/06/05 01:18:13;;;;;;;1.00;0.88;;;23.60;59.70;;;;;;6279198;28;20151;-51
2022/06/05 01:21:34;;;;;;;0.82;0.82;;;23.80;59.70;;;;;;6266911;28;20851;-48
2022/06/05 01:24:53;;;;;;;1.10;0.95;;;23.50;59.50;;;;;;6275669;28;20125;-49
2022/06/05 01:28:00;;;;;;;0.68;0.68;;;23.50;59.50;;;;;;6278549;28;20155;-50
2022/06/05 01:31:08;;;;;;;1.33;1.23;;;23.50;59.50;;;;;;6274908;28;20146;-50
2022/06/05 01:34:21;;;;;;;1.20;1.10;;;23.50;59.50;;;;;;6273680;28;20051;-50
2022/06/05 01:37:29;;;;;;;0.80;0.80;;;23.70;59.60;;;;;;6278792;28;20051;-49
2022/06/05 01:40:34;;;;;;;1.00;0.90;;;23.50;59.40;;;;;;6262810;28;20134;-49
2022/06/05 01:43:41;;;;;;;1.00;0.90;;;23.60;59.40;;;;;;6245099;28;20095;-51
2022/06/05 01:46:43;;;;;;;0.80;0.80;;;23.50;59.30;;;;;;6266088;28;20047;-47
2022/06/05 01:49:54;;;;;;;1.20;1.10;;;23.40;59.30;;;;;;6259220;28;20440;-48
2022/06/05 01:52:59;;;;;;;1.27;1.03;;;23.50;59.30;;;;;;6261674;28;20093;-51
2022/06/05 01:56:06;;;;;;;1.08;0.98;;;23.60;59.40;;;;;;6258024;28;21114;-51
2022/06/05 01:59:12;;;;;;;1.33;1.10;;;23.50;59.30;;;;;;6254224;28;20264;-47
2022/06/05 02:02:18;;;;;;;1.30;1.20;;;23.50;59.20;;;;;;6255998;28;20433;-47
2022/06/05 02:05:25;;;;;;;1.00;0.90;;;23.50;59.30;;;;;;6259830;28;20508;-48
2022/06/05 02:08:33;;;;;;;1.00;1.00;;;23.50;59.20;;;;;;6255981;28;20461;-48
2022/06/05 02:11:34;;;;;;;1.00;0.90;;;23.40;59.20;;;;;;6257123;28;20136;-50
2022/06/05 02:14:40;;;;;;;1.25;1.10;;;23.60;59.20;;;;;;6261640;28;20044;-48
2022/06/05 02:17:41;;;;;;;1.05;0.95;;;23.40;59.10;;;;;;6260124;28;20559;-47
2022/06/05 02:20:44;;;;;;;1.17;1.08;;;23.30;59.00;;;;;;6262515;28;20713;-50
2022/06/05 02:23:46;;;;;;;0.90;0.90;;;23.40;59.00;;;;;;6262543;28;20385;-49
2022/06/05 02:26:47;;;;;;;1.15;0.88;;;23.40;59.00;;;;;;6259512;28;20300;-49
2022/06/05 02:29:51;;;;;;;1.13;1.00;;;23.50;59.00;;;;;;6262068;28;20406;-48
2022/06/05 02:33:01;;;;;;;0.85;0.85;;;23.40;58.90;;;;;;6248335;28;20044;-47
2022/06/05 02:36:15;;;;;;;1.10;1.00;;;23.40;58.90;;;;;;6260797;28;20082;-49
2022/06/05 02:39:26;;;;;;;0.90;0.85;;;23.30;58.80;;;;;;6260655;28;20878;-51
2022/06/05 02:42:32;;;;;;;1.00;0.90;;;23.40;58.80;;;;;;6261283;28;20480;-48
2022/06/05 02:45:46;;;;;;;1.00;0.90;;;23.30;58.70;;;;;;6262134;28;20538;-49
2022/06/05 02:48:54;;;;;;;0.90;0.90;;;23.40;58.70;;;;;;6261716;28;20059;-50
2022/06/05 02:51:59;;;;;;;1.02;0.93;;;23.40;58.60;;;;;;6263490;28;20302;-49
2022/06/05 02:55:05;;;;;;;1.08;0.98;;;23.30;59.10;;;;;;6260106;28;20733;-48
2022/06/05 02:58:07;;;;;;;1.05;1.05;;;23.30;58.50;;;;;;6259383;28;20784;-48
2022/06/05 03:04:23;;;;;;;0.77;0.77;;;23.30;58.50;;;;;;6267223;28;20147;-48
2022/06/05 03:07:25;;;;;;;0.85;0.80;;;23.10;58.40;;;;;;6264802;28;20121;-47
2022/06/05 03:10:27;;;;;;;1.08;1.00;;;23.20;58.40;;;;;;6263367;28;20971;-48
2022/06/05 03:13:28;;;;;;;0.80;0.80;;;23.30;58.40;;;;;;6266973;28;20552;-48
2022/06/05 03:16:31;;;;;;;0.90;0.85;;;23.30;58.40;;;;;;6268497;28;20371;-47
2022/06/05 03:19:33;;;;;;;0.93;0.90;;;23.40;58.50;;;;;;6267888;28;20362;-47
2022/06/05 03:22:34;;;;;;;0.93;0.70;;;23.20;58.40;;;;;;6264560;28;20231;-49
2022/06/05 03:25:38;;;;;;;0.73;0.73;;;23.20;58.40;;;;;;6265199;28;20047;-47
2022/06/05 03:28:40;;;;;;;0.80;0.80;;;23.10;58.40;;;;;;6267885;28;20410;-48
2022/06/05 03:31:43;;;;;;;0.70;0.70;;;23.30;58.40;;;;;;6257675;28;21024;-52
2022/06/05 03:34:44;;;;;;;0.98;0.90;;;23.30;58.50;;;;;;6263439;28;20398;-47
2022/06/05 03:37:46;;;;;;;0.60;0.57;;;23.20;58.50;;;;;;6265158;28;20405;-48
2022/06/05 03:40:48;;;;;;;0.73;0.73;;;23.30;58.60;;;;;;6265916;28;20057;-51
2022/06/05 03:43:49;;;;;;;0.75;0.70;;;23.20;58.50;;;;;;6266347;28;20046;-50
2022/06/05 03:46:51;;;;;;;0.70;0.70;;;23.30;58.50;;;;;;6263800;28;20040;-47
2022/06/05 03:49:53;;;;;;;0.70;0.70;;;23.20;58.50;;;;;;6265841;28;20315;-52
2022/06/05 03:52:55;;;;;;;0.90;0.82;;;23.10;58.40;;;;;;6263379;28;20051;-49
2022/06/05 03:55:56;;;;;;;0.70;0.70;;;23.40;58.50;;;;;;6266711;28;20560;-50
2022/06/05 03:58:58;;;;;;;;;;;23.20;58.40;;;;;;6266108;28;20447;-48
2022/06/05 04:02:00;;;;;;;0.57;0.57;;;23.20;58.40;;;;;;6260189;28;20450;-50
2022/06/05 04:05:03;;;;;;;0.68;0.60;;;23.30;58.50;;;;;;6262371;28;20103;-47
2022/06/05 04:08:05;;;;;;;0.50;0.50;;;23.30;59.20;;;;;;6258093;28;20592;-46
2022/06/05 04:11:07;;;;;;;1.00;0.90;;;23.10;58.50;;;;;;6261381;28;20828;-48
2022/06/05 04:14:09;;;;;;;0.50;0.50;;;23.20;58.60;;;;;;6259911;28;20144;-48
2022/06/05 04:17:11;;;;;;;0.63;0.57;;;23.20;58.70;;;;;;6264891;28;20086;-50
2022/06/05 04:20:13;;;;;;;0.57;0.57;;;23.10;58.70;;;;;;6260384;28;20477;-49
2022/06/05 04:23:15;;;;;;;0.80;0.70;;;23.10;58.70;;;;;;6261491;28;20285;-48
2022/06/05 04:26:19;;;;;;;0.77;0.70;;;23.20;58.70;;;;;;6261108;28;20880;-50
2022/06/05 04:29:20;;;;;;;0.90;0.90;;;23.20;58.70;;;;;;6256132;28;20053;-49
2022/06/05 04:32:22;;;;;;;0.88;0.80;;;23.30;58.70;;;;;;6244275;28;20121;-50
2022/06/05 04:35:24;;;;;;;0.90;0.75;;;23.10;58.70;;;;;;6256235;28;20040;-48
2022/06/05 04:38:26;;;;;;;0.98;0.88;;;23.10;58.70;;;;;;6262217;28;20295;-48
2022/06/05 04:41:27;;;;;;;0.80;0.80;;;23.00;58.60;;;;;;6253212;28;20043;-48
2022/06/05 04:44:29;;;;;;;0.70;0.70;;;23.10;58.60;;;;;;6253051;28;20861;-50
2022/06/05 04:47:31;;;;;;;0.70;0.70;;;23.20;58.70;;;;;;6258175;28;20324;-48
2022/06/05 04:50:33;;;;;;;0.80;0.80;;;23.10;58.60;;;;;;6261602;28;20576;-47
2022/06/05 04:53:35;;;;;;;0.60;0.60;;;23.10;58.70;;;;;;6244737;28;20109;-48
2022/06/05 04:56:37;;;;;;;0.73;0.60;;;23.10;58.70;;;;;;6259847;28;20448;-48
2022/06/05 04:59:38;;;;;;;0.57;0.50;;;23.10;58.70;;;;;;6260658;28;20486;-51
2022/06/05 05:02:40;;;;;;;0.60;0.60;;;23.10;58.70;;;;;;6245314;28;20320;-48
2022/06/05 05:05:42;;;;;;;0.60;0.60;;;23.10;58.70;;;;;;6257690;28;20052;-49
2022/06/05 05:08:43;;;;;;;0.52;0.50;;;23.10;58.60;;;;;;6256436;28;20816;-49
2022/06/05 05:11:45;;;;;;;0.75;0.70;;;23.10;58.60;;;;;;6248510;28;20574;-49
2022/06/05 05:14:47;;;;;;;0.80;0.70;;;23.20;58.60;;;;;;6255105;28;20066;-49
2022/06/05 05:17:49;;;;;;;0.82;0.63;;;23.20;58.60;;;;;;6262041;28;20039;-49
2022/06/05 05:20:51;;;;;;;0.68;0.60;;;23.10;58.50;;;;;;6261142;28;20027;-47
2022/06/05 05:23:54;;;;;;;0.70;0.50;;;23.10;58.50;;;;;;6254822;28;20480;-47
2022/06/05 05:26:55;;;;;;;0.80;0.77;;;23.00;58.40;;;;;;6260891;28;20342;-46
2022/06/05 05:29:57;;;;;;;0.52;0.52;;;23.10;58.50;;;;;;6258404;28;20044;-47
2022/06/05 05:32:59;;;;;;;0.52;0.52;;;23.00;58.40;;;;;;6248477;28;20035;-48
2022/06/05 05:36:01;;;;;;;0.63;0.60;;;23.10;58.40;;;;;;6252062;28;20046;-48
2022/06/05 05:42:19;;;;;;;0.75;0.65;;;23.00;58.30;;;;;;6261845;28;20047;-48
2022/06/05 05:45:21;;;;;;;0.52;0.52;;;23.00;58.30;;;;;;6259546;28;20718;-47
2022/06/05 05:48:23;;;;;;;0.55;0.50;;;23.00;58.30;;;;;;6256877;28;20559;-47
2022/06/05 05:51:28;;;;;;;0.60;0.60;;;23.20;58.40;;;;;;6246260;28;21117;-49
2022/06/05 05:54:29;;;;;;;0.85;0.60;;;22.60;58.00;;;;;;6252714;28;20359;-46
2022/06/05 05:57:31;;;;;;;0.65;0.60;;;23.10;58.30;;;;;;6262121;28;20310;-47
2022/06/05 06:00:33;;;;;;;0.52;0.52;;;22.90;58.10;;;;;;6259745;28;20326;-49
2022/06/05 06:03:36;;;;;;;0.70;0.70;;;23.10;58.20;;;;;;6257482;28;20236;-48
2022/06/05 06:06:45;;;;;;;0.50;0.47;;;23.10;58.20;;;;;;6257616;28;20044;-49
2022/06/05 06:09:47;;;;;;;0.40;0.40;;;23.00;58.10;;;;;;6244028;28;20603;-48
2022/06/05 06:12:56;;;;;;;0.60;0.47;;;23.20;58.20;;;;;;6243126;28;20153;-48
2022/06/05 06:15:58;;;;;;;0.60;0.60;;;23.00;58.10;;;;;;6259199;28;20070;-49
2022/06/05 06:19:00;;;;;;;0.60;0.47;;;22.90;58.10;;;;;;6254621;28;20686;-49
2022/06/05 06:22:02;;;;;;;0.93;0.57;;;23.10;58.10;;;;;;6256353;28;20376;-50
2022/06/05 06:25:05;;;;;;;0.47;0.45;;;23.20;58.20;;;;;;6257957;28;20365;-49
2022/06/05 06:28:07;;;;;;;0.68;0.50;;;23.10;58.10;;;;;;6260731;28;20991;-49
2022/06/05 06:31:11;;;;;;;0.32;0.32;;;23.00;58.10;;;;;;6251805;28;20086;-50
2022/06/05 06:34:13;;;;;;;0.52;0.50;;;23.00;58.10;;;;;;6248192;28;20052;-48
2022/06/05 06:37:16;;;;;;;0.30;0.30;;;23.10;58.20;;;;;;6256409;28;20079;-47
2022/06/05 06:40:18;;;;;;;0.73;0.60;;;23.10;58.20;;;;;;6256535;28;20579;-51
2022/06/05 06:43:20;;;;;;;0.60;0.30;;;23.00;58.70;;;;;;6238663;28;20631;-48
2022/06/05 06:46:22;;;;;;;0.68;0.57;;;23.10;58.20;;;;;;6252306;28;20430;-48
2022/06/05 06:49:24;;;;;;;0.40;0.40;;;23.00;58.10;;;;;;6259035;28;20229;-50
2022/06/05 06:52:25;;;;;;;0.40;0.35;;;23.00;58.20;;;;;;6252264;28;20485;-49
2022/06/05 06:55:28;;;;;;;0.70;0.70;;;23.10;58.20;;;;;;6256865;28;20124;-48
2022/06/05 06:58:29;;;;;;;0.40;0.40;;;23.30;58.40;;;;;;6252688;28;20820;-49
2022/06/05 07:01:31;;;;;;;0.80;0.40;;;22.90;58.20;;;;;;6247571;28;20358;-49
2022/06/05 07:04:37;;;;;;;0.35;0.35;;;23.20;58.40;;;;;;6252889;28;20059;-50
2022/06/05 07:07:38;;;;;;;0.40;0.40;;;23.10;58.40;;;;;;6252123;28;20348;-48
2022/06/05 07:10:40;;;;;;;0.82;0.65;;;23.10;58.40;;;;;;6251555;28;20861;-52
2022/06/05 07:13:42;;;;;;;0.50;0.50;;;23.10;58.40;;;;;;6240893;28;20170;-49
2022/06/05 07:16:44;;;;;;;0.60;0.55;;;23.00;58.40;;;;;;6250881;28;20834;-52
2022/06/05 07:19:47;;;;;;;0.40;0.40;;;23.20;58.40;;;;;;6254896;28;20040;-47
2022/06/05 07:22:48;;;;;;;0.50;0.50;;;23.20;58.40;;;;;;6236420;28;20171;-46
2022/06/05 07:25:55;;;;;;;0.60;0.50;;;23.20;58.40;;;;;;6247956;28;20695;-48
2022/06/05 07:28:57;;;;;;;;;;;23.10;58.40;;;;;;6260963;28;20328;-46
2022/06/05 07:31:59;;;;;;;0.50;0.50;;;23.00;58.40;;;;;;6254654;28;19927;-48
2022/06/05 07:35:01;;;;;;;0.50;0.40;;;23.10;58.30;;;;;;6256211;28;20043;-50
2022/06/05 07:38:03;;;;;;;0.50;0.40;;;23.20;58.40;;;;;;6251049;28;20373;-47
2022/06/05 07:41:18;;;;;;;0.50;0.40;;;23.10;58.30;;;;;;6243897;28;20044;-48
2022/06/05 07:44:20;;;;;;;0.50;0.40;;;23.10;58.30;;;;;;6246459;28;20327;-52
2022/06/05 07:47:22;;;;;;;0.65;0.57;;;23.00;58.20;;;;;;6251552;28;20049;-49
2022/06/05 07:50:24;;;;;;;0.40;0.40;;;23.10;58.30;;;;;;6257443;28;20651;-50
2022/06/05 07:56:42;;;;;;;0.50;0.50;;;23.00;58.10;;;;;;6258817;28;20648;-48
2022/06/05 07:59:46;;;;;;;0.60;0.40;;;23.30;58.30;;;;;;6260742;28;20127;-49
2022/06/05 08:02:48;;;;;;;0.68;0.50;;;23.10;58.20;;;;;;6235361;28;20341;-51
2022/06/05 08:05:50;;;;;;;0.70;0.57;;;23.10;58.10;;;;;;6248894;28;20162;-51
2022/06/05 08:08:52;;;;;;;0.43;0.40;;;23.10;58.10;;;;;;6259426;28;20055;-47
2022/06/05 08:11:53;;;;;;;0.50;0.50;;;23.10;58.10;;;;;;6245765;28;20626;-48
2022/06/05 08:14:56;;;;;;;0.50;0.40;;;23.10;58.10;;;;;;6246286;28;20348;-51
2022/06/05 08:17:58;;;;;;;0.30;0.30;;;23.10;58.10;;;;;;6252370;28;20302;-48
2022/06/05 08:21:00;;;;;;;0.40;0.40;;;23.30;58.20;;;;;;6254872;28;20036;-49
2022/06/05 08:24:01;;;;;;;0.60;0.50;;;23.20;58.10;;;;;;6251910;28;20159;-48
2022/06/05 08:27:04;;;;;;;0.65;0.50;;;23.10;57.90;;;;;;6252479;28;20293;-50
2022/06/05 08:30:06;;;;;;;0.40;0.40;;;23.20;58.00;;;;;;6259833;28;20127;-50
2022/06/05 08:33:09;;;;;;;0.40;0.30;;;23.30;58.00;;;;;;6220410;28;20158;-49
2022/06/05 08:36:12;;;;;;;0.50;0.47;;;23.30;58.50;;;;;;6250043;28;21025;-50
2022/06/05 08:42:41;;;;;;;0.45;0.35;;;23.20;57.80;;;;;;6257626;28;20051;-48
2022/06/05 08:45:47;;;;;;;0.70;0.40;;;23.30;57.80;;;;;;6252273;28;20060;-49
2022/06/05 08:48:54;;;;;;;0.43;0.40;;;23.30;57.80;;;;;;6254492;28;20617;-51
2022/06/05 08:52:05;;;;;;;0.32;0.32;;;23.30;57.70;;;;;;6249622;28;20036;-49
2022/06/05 08:55:14;;;;;;;0.50;0.47;;;23.60;57.80;;;;;;6249825;28;20596;-51
2022/06/05 08:58:25;;;;;;;0.65;0.30;;;23.40;57.60;;;;;;6257239;28;20265;-47
2022/06/05 09:01:36;;;;;;;0.55;0.55;;;23.30;57.50;;;;;;6244479;28;20424;-52
2022/06/05 09:04:48;;;;;;;0.73;0.45;;;23.40;57.50;;;;;;6246389;28;20473;-48
2022/06/05 09:07:54;;;;;;;0.57;0.57;;;23.40;57.50;;;;;;6254149;28;20680;-48
2022/06/05 09:10:59;;;;;;;0.50;0.50;;;23.40;57.50;;;;;;6249635;28;20048;-52
2022/06/05 09:14:08;;;;;;;0.60;0.50;;;23.20;57.40;;;;;;6242941;28;20158;-51
2022/06/05 09:17:13;;;;;;;0.50;0.40;;;23.40;57.40;;;;;;6254688;28;20576;-47
2022/06/05 09:20:16;;;;;;;0.40;0.40;;;23.40;57.40;;;;;;6259458;28;20385;-49
2022/06/05 09:23:22;;;;;;;0.38;0.38;;;23.50;57.40;;;;;;6250535;28;20459;-48
2022/06/05 09:26:40;;;;;;;0.50;0.50;;;23.40;57.30;;;;;;6238496;28;20748;-48
2022/06/05 09:29:46;;;;;;;0.70;0.70;;;23.40;57.20;;;;;;6258167;28;20224;-49
2022/06/05 09:33:02;;;;;;;0.28;0.28;;;23.40;57.20;;;;;;6253369;28;20284;-49
2022/06/05 09:36:08;;;;;;;0.50;0.50;;;23.50;57.10;;;;;;6259904;28;20579;-47
2022/06/05 09:39:25;;;;;;;0.50;0.40;;;23.40;57.00;;;;;;6267906;27;20375;-51
2022/06/05 09:42:43;;;;;;;0.35;0.35;;;23.10;56.70;;;;;;6253658;28;20416;-48
2022/06/05 09:46:02;;;;;;;0.35;0.35;;;23.40;56.80;;;;;;6257731;28;20469;-48
2022/06/05 09:49:12;;;;;;;0.40;0.40;;;23.50;56.80;;;;;;6254938;28;20050;-52
2022/06/05 09:52:15;;;;;;;0.77;0.50;;;23.40;56.70;;;;;;6240625;28;20566;-51
2022/06/05 09:55:20;;;;;;;0.40;0.40;;;23.60;56.70;;;;;;6247097;28;20598;-50
2022/06/05 09:58:52;;;;;;;0.70;0.55;;;23.60;56.70;;;;;;6233604;28;20405;-50
2022/06/05 10:01:55;;;;;;;0.47;0.47;;;23.80;56.70;;;;;;6254752;28;20459;-47
2022/06/05 10:04:57;;;;;;;0.50;0.40;;;23.60;56.60;;;;;;6259753;28;20035;-48
2022/06/05 10:08:21;;;;;;;;;;;23.50;56.40;;;;;;6254611;28;20440;-49
2022/06/05 10:11:30;;;;;;;0.80;0.50;;;23.60;56.50;;;;;;6252256;28;20761;-47
2022/06/05 10:14:42;;;;;;;0.70;0.50;;;23.60;56.40;;;;;;6252575;28;21404;-49
2022/06/05 10:17:48;;;;;;;;;;;23.60;56.30;;;;;;6258848;28;20046;-47
2022/06/05 10:20:57;;;;;;;0.50;0.50;;;23.60;56.30;;;;;;6255981;28;20442;-50
2022/06/05 10:24:14;;;;;;;0.50;0.50;;;23.70;56.30;;;;;;6256619;28;20407;-51
2022/06/05 10:27:18;;;;;;;0.52;0.50;;;23.60;56.10;;;;;;6259392;28;20071;-49
2022/06/05 10:30:21;;;;;;;0.40;0.40;;;23.60;56.00;;;;;;6250951;28;20076;-48
2022/06/05 10:33:30;;;;;;;0.65;0.52;;;23.60;55.90;;;;;;6235118;28;20067;-48
2022/06/05 10:36:49;;;;;;;0.50;0.50;;;23.70;55.90;;;;;;6253405;28;20436;-47
2022/06/05 10:40:01;;;;;;;0.40;0.40;;;23.60;55.70;;;;;;6253209;28;20055;-50
2022/06/05 10:43:13;;;;;;;0.40;0.40;;;23.70;55.70;;;;;;6254076;28;20412;-51
2022/06/05 10:46:21;;;;;;;0.38;0.30;;;23.50;55.60;;;;;;6256748;28;20051;-48
2022/06/05 10:49:31;;;;;;;0.40;0.40;;;23.70;55.50;;;;;;6256524;28;20063;-50
2022/06/05 10:52:36;;;;;;;0.50;0.50;;;23.80;55.40;;;;;;6253497;28;20079;-49
2022/06/05 10:55:59;;;;;;;0.38;0.38;;;23.80;55.30;;;;;;6255626;28;20155;-50
2022/06/05 10:59:11;;;;;;;0.45;0.40;;;23.70;55.00;;;;;;6261714;28;20086;-49
2022/06/05 11:02:19;;;;;;;;;;;23.80;55.00;;;;;;6252239;28;20052;-49
2022/06/05 11:05:41;;;;;;;0.30;0.30;;;23.60;54.90;;;;;;6258817;28;19928;-47
2022/06/05 11:08:55;;;;;;;0.60;0.50;;;23.80;54.80;;;;;;6252860;28;20051;-50
2022/06/05 11:15:34;;;;;;;0.30;0.30;;;23.80;54.20;;;;;;6254934;28;20074;-50
2022/06/05 11:18:42;;;;;;;0.47;0.30;;;23.80;53.80;;;;;;6253767;28;20078;-50
2022/06/05 11:21:49;;;;;;;0.43;0.40;;;23.90;53.40;;;;;;6253789;28;20506;-51
2022/06/05 11:24:55;;;;;;;0.45;0.40;;;23.90;53.00;;;;;;6260463;28;20236;-49
2022/06/05 11:28:15;;;;;;;0.32;0.30;;;23.90;52.40;;;;;;6258794;28;20615;-46
2022/06/05 11:31:35;;;;;;;0.40;0.40;;;23.80;51.70;;;;;;6260190;28;21360;-48
2022/06/05 11:34:47;;;;;;;0.68;0.40;;;23.80;51.40;;;;;;6256867;28;20044;-50
2022/06/05 11:37:56;;;;;;;0.55;0.43;;;24.00;51.20;;;;;;6259368;28;20475;-50
2022/06/05 11:41:04;;;;;;;0.75;0.50;;;23.90;50.90;;;;;;6258040;28;20225;-48
2022/06/05 11:44:18;;;;;;;0.40;0.40;;;23.80;50.50;;;;;;6256513;28;20339;-48
2022/06/05 11:47:35;;;;;;;0.47;0.45;;;24.00;50.30;;;;;;6258446;28;20040;-51
2022/06/05 11:50:42;;;;;;;0.52;0.52;;;23.80;50.10;;;;;;6259468;28;21184;-52
2022/06/05 11:53:54;;;;;;;0.50;0.50;;;23.90;49.90;;;;;;6240834;28;20144;-47
2022/06/05 11:57:06;;;;;;;0.38;0.35;;;24.00;49.80;;;;;;6255428;28;20054;-50
2022/06/05 12:00:16;;;;;;;0.50;0.40;;;23.90;50.10;;;;;;6255249;28;21095;-48
2022/06/05 12:03:26;;;;;;;0.68;0.40;;;23.80;49.30;;;;;;6240423;28;20075;-48
2022/06/05 12:06:34;;;;;;;0.35;0.28;;;24.00;49.30;;;;;;6253454;28;20055;-52
2022/06/05 12:09:45;;;;;;;0.20;0.20;;;23.90;49.00;;;;;;6257246;28;20699;-47
2022/06/05 12:12:55;;;;;;;0.30;0.20;;;23.90;48.90;;;;;;6260141;28;20338;-50
2022/06/05 12:16:02;;;;;;;0.20;0.20;;;23.90;48.80;;;;;;6254101;28;20408;-50
2022/06/05 12:19:14;;;;;;;0.30;0.30;;;23.70;48.50;;;;;;6258269;28;20367;-48
2022/06/05 12:22:22;;;;;;;0.30;0.30;;;23.90;48.60;;;;;;6254413;28;20531;-49
2022/06/05 12:25:28;;;;;;;0.20;0.20;;;23.90;48.00;;;;;;6255013;28;20291;-51
2022/06/05 12:28:37;;;;;;;0.20;0.20;;;23.90;47.90;;;;;;6256391;28;20521;-48
2022/06/05 12:31:46;;;;;;;0.20;0.20;;;23.80;47.60;;;;;;6239996;28;20082;-53
2022/06/05 12:34:55;;;;;;;0.25;0.25;;;24.00;47.50;;;;;;6251487;28;20138;-49
2022/06/05 12:38:18;;;;;;;0.20;0.10;;;24.00;47.20;;;;;;6251275;28;20206;-50
2022/06/05 12:41:23;;;;;;;0.30;0.20;;;23.90;46.90;;;;;;6258774;28;20079;-48
2022/06/05 12:44:28;;;;;;;0.20;0.20;;;24.10;46.90;;;;;;6258293;28;20538;-46
2022/06/05 12:47:51;;;;;;;0.20;0.20;;;24.10;46.90;;;;;;6239138;28;20310;-48
2022/06/05 12:51:02;;;;;;;0.20;0.20;;;24.10;46.70;;;;;;6255766;28;20052;-51
2022/06/05 12:54:16;;;;;;;0.20;0.20;;;24.00;46.60;;;;;;6230825;28;20824;-49
2022/06/05 12:57:22;;;;;;;0.20;0.20;;;24.00;46.60;;;;;;6249359;28;20483;-48
2022/06/05 13:00:37;;;;;;;0.10;0.10;;;24.00;46.50;;;;;;6250574;28;20347;-48
2022/06/05 13:03:51;;;;;;;0.20;0.20;;;24.00;46.40;;;;;;6234828;28;21195;-49
2022/06/05 13:07:02;;;;;;;0.20;0.20;;;23.90;46.20;;;;;;6240127;28;20384;-51
2022/06/05 13:10:18;;;;;;;0.05;0.05;;;24.00;46.20;;;;;;6250883;28;20117;-48
2022/06/05 13:13:29;;;;;;;0.20;0.17;;;24.00;46.20;;;;;;6244602;28;20106;-48
2022/06/05 13:16:37;;;;;;;;;;;24.00;46.10;;;;;;6252311;28;20590;-50
2022/06/05 13:19:44;;;;;;;0.70;0.20;;;24.10;46.30;;;;;;6251297;28;20053;-49
2022/06/05 13:22:51;;;;;;;0.20;0.20;;;24.00;46.30;;;;;;6234770;28;20578;-48
2022/06/05 13:26:01;;;;;;;0.30;0.10;;;24.00;46.20;;;;;;6233526;28;20036;-50
2022/06/05 13:29:15;;;;;;;0.20;0.20;;;24.00;46.10;;;;;;6234010;28;20050;-50
2022/06/05 13:32:19;;;;;;;0.22;0.20;;;23.90;46.10;;;;;;6235666;28;20295;-46
2022/06/05 13:35:45;;;;;;;0.10;0.10;;;24.00;46.10;;;;;;6229579;28;20796;-52
2022/06/05 13:38:52;;;;;;;0.20;0.20;;;23.90;46.00;;;;;;6242935;28;20079;-48
2022/06/05 13:42:00;;;;;;;0.20;0.20;;;24.00;46.10;;;;;;6254656;27;20083;-47
2022/06/05 13:45:04;;;;;;;0.30;0.10;;;24.00;45.90;;;;;;6247100;28;20177;-48
2022/06/05 13:48:14;;;;;;;0.10;0.10;;;24.00;45.80;;;;;;6249612;28;20170;-47
2022/06/05 13:51:25;;;;;;;0.20;0.20;;;24.00;45.70;;;;;;6245226;28;20492;-47
2022/06/05 13:54:34;;;;;;;0.20;0.10;;;24.00;45.60;;;;;;6237553;28;20380;-49
2022/06/05 13:57:47;;;;;;;0.10;0.10;;;24.00;45.50;;;;;;6247973;28;20393;-51
2022/06/05 14:00:53;;;;;;;0.20;0.10;;;23.90;45.20;;;;;;6242299;28;21262;-51
2022/06/05 14:03:57;;;;;;;0.38;0.20;;;24.00;45.10;;;;;;6231105;28;20492;-48
2022/06/05 14:07:03;;;;;;;0.10;0.10;;;24.00;45.00;;;;;;6240510;28;20328;-48
2022/06/05 14:10:12;;;;;;;0.10;0.10;;;23.90;44.70;;;;;;6244699;28;20151;-49
2022/06/05 14:13:15;;;;;;;0.10;0.10;;;24.00;44.60;;;;;;6237905;28;20406;-48
2022/06/05 14:16:18;;;;;;;0.20;0.10;;;24.00;44.40;;;;;;6248409;28;20292;-50
2022/06/05 14:19:23;;;;;;;0.20;0.13;;;24.00;44.20;;;;;;6250610;28;20791;-48
2022/06/05 14:22:28;;;;;;;0.20;0.20;;;23.90;44.00;;;;;;6247226;28;20534;-47
2022/06/05 14:25:38;;;;;;;0.10;0.10;;;24.00;43.90;;;;;;6247653;28;20384;-47
2022/06/05 14:28:41;;;;;;;0.10;0.10;;;23.90;43.60;;;;;;6251516;28;20132;-48
2022/06/05 14:31:55;;;;;;;0.25;0.10;;;24.00;43.60;;;;;;6242158;28;20606;-49
2022/06/05 14:35:20;;;;;;;0.10;0.10;;;24.00;43.40;;;;;;6246139;28;20398;-49
2022/06/05 14:38:28;;;;;;;0.10;0.10;;;23.90;43.30;;;;;;6250934;28;20413;-49
2022/06/05 14:41:35;;;;;;;0.10;0.10;;;24.00;43.30;;;;;;6243767;28;20614;-51
2022/06/05 14:44:41;;;;;;;0.10;0.10;;;23.80;43.10;;;;;;6234126;28;20980;-48
2022/06/05 14:47:47;;;;;;;0.10;0.10;;;24.00;43.10;;;;;;6250034;28;20220;-49
2022/06/05 14:50:56;;;;;;;0.10;0.10;;;24.20;43.00;;;;;;6253484;28;20051;-48
2022/06/05 14:54:02;;;;;;;0.10;0.10;;;24.00;42.80;;;;;;6235602;28;20371;-50
2022/06/05 15:00:38;;;;;;;0.10;0.10;;;24.00;42.50;;;;;;6258538;28;20576;-48
2022/06/05 15:03:49;;;;;;;0.05;0.05;;;24.00;42.30;;;;;;6245419;28;20428;-48
2022/06/05 15:06:55;;;;;;;0.40;0.40;;;24.00;42.00;;;;;;6252806;28;20039;-51
2022/06/05 15:10:00;;;;;;;0.00;0.00;;;24.00;42.00;;;;;;6258446;28;20364;-49
2022/06/05 15:13:11;;;;;;;0.17;0.17;;;23.90;41.70;;;;;;6254774;28;20186;-47
2022/06/05 15:16:19;;;;;;;0.00;0.00;;;23.90;41.50;;;;;;6261666;28;20521;-50
2022/06/05 15:19:25;;;;;;;0.10;0.10;;;23.80;41.40;;;;;;6261359;28;20121;-47
2022/06/05 15:22:38;;;;;;;0.10;0.10;;;23.90;41.30;;;;;;6242817;28;20384;-48
2022/06/05 15:25:46;;;;;;;0.10;0.10;;;24.10;41.20;;;;;;6245670;28;20453;-53
2022/06/05 15:29:12;;;;;;;0.10;0.10;;;24.00;41.10;;;;;;6258075;28;20382;-48
2022/06/05 15:32:20;;;;;;;0.10;0.10;;;23.90;40.80;;;;;;6256108;28;20065;-48
2022/06/05 15:35:27;;;;;;;0.17;0.10;;;24.00;40.70;;;;;;6257520;28;20048;-46
2022/06/05 15:38:44;;;;;;;0.10;0.10;;;23.90;40.30;;;;;;6259984;28;20472;-49
2022/06/05 15:42:01;;;;;;;0.10;0.10;;;24.00;40.10;;;;;;6243998;28;20918;-46
2022/06/05 15:45:25;;;;;;;0.10;0.10;;;24.00;40.00;;;;;;6257527;28;20044;-46
2022/06/05 15:48:41;;;;;;;0.10;0.10;;;23.90;39.70;;;;;;6259594;28;20258;-48
2022/06/05 15:51:53;;;;;;;0.08;0.08;;;23.90;39.60;;;;;;6250407;28;20156;-48
2022/06/05 15:55:16;;;;;;;0.00;0.00;;;24.00;39.50;;;;;;6249540;28;20340;-50
2022/06/05 15:58:29;;;;;;;0.20;0.10;;;23.90;39.40;;;;;;6255509;28;20138;-49
2022/06/05 16:01:35;;;;;;;0.10;0.10;;;24.10;39.50;;;;;;6252772;28;20554;-52
2022/06/05 16:04:39;;;;;;;0.10;0.10;;;24.00;39.40;;;;;;6254367;28;20267;-49
2022/06/05 16:07:42;;;;;;;0.10;0.10;;;23.90;39.40;;;;;;6257498;28;20043;-48
2022/06/05 16:10:51;;;;;;;0.10;0.10;;;23.90;39.30;;;;;;6230693;28;20086;-47
2022/06/05 16:14:07;;;;;;;0.10;0.10;;;23.90;39.30;;;;;;6258640;28;20035;-49
2022/06/05 16:17:27;;;;;;;0.17;0.17;;;24.00;39.40;;;;;;6257238;28;20043;-48
2022/06/05 16:20:47;;;;;;;0.20;0.10;;;24.00;39.40;;;;;;6252399;28;20048;-51
2022/06/05 16:24:05;;;;;;;0.20;0.20;;;24.00;39.40;;;;;;6247412;28;20040;-50
2022/06/05 16:27:14;;;;;;;0.10;0.10;;;24.00;39.40;;;;;;6266720;28;20210;-53
2022/06/05 16:30:30;;;;;;;0.10;0.10;;;24.00;39.40;;;;;;6270127;28;20055;-50
2022/06/05 16:33:58;;;;;;;0.10;0.10;;;23.90;39.40;;;;;;6269001;28;21914;-51